createdAt,value
2022-08-07T00:04:41.617Z,1.73
2022-08-07T00:10:04.676Z,1.67
2022-08-07T00:15:09.199Z,2.08
2022-08-07T00:20:15.624Z,2.08
2022-08-07T00:25:37.578Z,2.25
2022-08-07T00:30:42.976Z,1.77
2022-08-07T00:35:49.480Z,2.03
2022-08-07T00:40:51.429Z,2.50
2022-08-07T00:45:53.350Z,1.98
2022-08-07T00:50:55.612Z,2.55
2022-08-07T00:56:03.207Z,2.20
2022-08-07T01:01:05.545Z,2.20
2022-08-07T01:06:08.104Z,2.05
2022-08-07T01:12:09.744Z,1.92
2022-08-07T01:16:34.525Z,2.20
2022-08-07T01:21:37.251Z,1.92
2022-08-07T01:26:40.343Z,1.50
2022-08-07T01:31:48.693Z,1.40
2022-08-07T01:36:52.458Z,1.15
2022-08-07T01:42:36.891Z,1.60
2022-08-07T01:48:29.242Z,1.45
2022-08-07T01:52:56.248Z,1.40
2022-08-07T01:58:06.528Z,1.40
2022-08-07T02:03:42.680Z,1.33
2022-08-07T02:08:49.977Z,1.38
2022-08-07T02:14:02.317Z,1.50
2022-08-07T02:20:05.245Z,1.42
2022-08-07T02:24:30.369Z,1.55
2022-08-07T02:29:34.318Z,1.63
2022-08-07T02:34:51.066Z,1.50
2022-08-07T02:40:12.059Z,1.75
2022-08-07T02:45:58.851Z,1.83
2022-08-07T02:50:44.637Z,1.60
2022-08-07T02:56:02.286Z,1.65
2022-08-07T03:01:16.050Z,1.90
2022-08-07T03:06:26.086Z,2.00
2022-08-07T03:11:38.570Z,1.80
2022-08-07T03:16:40.899Z,2.20
2022-08-07T03:21:50.368Z,1.80
2022-08-07T03:26:58.756Z,2.28
2022-08-07T03:32:04.336Z,2.00
2022-08-07T03:37:12.219Z,2.10
2022-08-07T03:42:15.966Z,2.08
2022-08-07T03:47:18.533Z,2.28
2022-08-07T03:52:27.859Z,2.03
2022-08-07T03:58:35.153Z,2.23
2022-08-07T04:02:56.689Z,2.63
2022-08-07T04:07:58.801Z,2.25
2022-08-07T04:13:03.327Z,2.38
2022-08-07T04:18:57.083Z,2.28
2022-08-07T04:23:43.522Z,2.45
2022-08-07T04:28:50.321Z,2.33
2022-08-07T04:33:56.471Z,2.60
2022-08-07T04:38:58.584Z,2.50
2022-08-07T04:44:12.241Z,2.45
2022-08-07T04:49:42.818Z,2.80
2022-08-07T04:58:15.999Z,2.47
2022-08-07T05:01:20.256Z,2.53
2022-08-07T05:06:43.347Z,2.65
2022-08-07T05:11:58.553Z,2.95
2022-08-07T05:17:05.952Z,2.92
2022-08-07T05:22:26.811Z,2.90
2022-08-07T05:28:02.793Z,2.75
2022-08-07T05:32:53.108Z,3.00
2022-08-07T05:38:09.001Z,2.90
2022-08-07T05:43:11.682Z,2.83
2022-08-07T05:48:15.374Z,2.40
2022-08-07T05:54:13.135Z,2.95
2022-08-07T05:58:40.989Z,2.28
2022-08-07T06:03:58.915Z,2.53
2022-08-07T06:09:04.717Z,2.30
2022-08-07T06:14:12.338Z,2.80
2022-08-07T06:19:18.244Z,2.28
2022-08-07T06:24:56.886Z,2.17
2022-08-07T06:30:00.960Z,2.35
2022-08-07T06:35:02.773Z,2.00
2022-08-07T06:40:21.463Z,2.45
2022-08-07T06:45:24.253Z,2.08
2022-08-07T06:50:26.864Z,1.95
2022-08-07T06:56:00.296Z,2.08
2022-08-07T07:00:58.137Z,1.85
2022-08-07T07:06:04.323Z,2.58
2022-08-07T07:11:14.043Z,1.60
2022-08-07T07:16:45.102Z,2.08
2022-08-07T07:22:04.949Z,1.80
2022-08-07T07:27:16.960Z,1.50
2022-08-07T07:32:21.220Z,1.65
2022-08-07T07:37:49.793Z,1.60
2022-08-07T07:42:53.748Z,1.33
2022-08-07T07:47:57.157Z,1.17
2022-08-07T07:53:00.861Z,1.20
2022-08-07T07:58:03.398Z,1.02
2022-08-07T08:03:16.756Z,1.30
2022-08-07T08:08:39.229Z,0.90
2022-08-07T08:13:53.371Z,0.95
2022-08-07T08:19:00.546Z,1.00
2022-08-07T09:03:02.185Z,1.00
2022-08-07T09:08:49.890Z,0.82
2022-08-07T09:14:16.330Z,0.95
2022-08-07T09:19:52.619Z,0.88
2022-08-07T09:25:17.370Z,1.10
2022-08-07T09:30:32.357Z,0.90
2022-08-07T09:59:14.526Z,1.77
2022-08-07T10:05:15.301Z,1.20
2022-08-07T10:28:33.378Z,0.90
2022-08-07T11:14:45.087Z,1.00
2022-08-07T11:26:13.071Z,1.00
2022-08-07T11:31:24.840Z,0.70
2022-08-07T11:37:11.718Z,0.80
2022-08-07T11:43:18.539Z,0.70
2022-08-07T11:56:24.998Z,0.93
2022-08-07T12:12:11.599Z,0.83
2022-08-07T12:39:57.358Z,0.90
2022-08-07T13:13:48.234Z,0.77
2022-08-07T13:19:22.045Z,0.88
2022-08-07T13:31:46.228Z,0.80
2022-08-07T13:53:08.188Z,0.80
2022-08-07T14:10:12.251Z,0.80
2022-08-07T14:15:18.842Z,0.80
2022-08-07T14:26:50.328Z,0.90
2022-08-07T14:31:57.707Z,1.00
2022-08-07T15:04:55.970Z,1.00
2022-08-07T15:10:58.686Z,0.70
2022-08-07T15:16:20.128Z,1.02
2022-08-07T15:33:43.001Z,0.90
2022-08-07T15:45:02.053Z,0.80
2022-08-07T16:22:04.127Z,0.93
2022-08-07T16:32:39.648Z,1.00
2022-08-07T16:38:14.818Z,0.90
2022-08-07T17:21:22.685Z,1.05
2022-08-07T17:44:41.495Z,0.93
2022-08-07T17:50:01.091Z,0.90
2022-08-07T18:01:51.742Z,0.90
2022-08-07T18:07:22.913Z,1.10
2022-08-07T18:13:01.417Z,0.95
2022-08-07T18:18:45.046Z,0.90
2022-08-07T18:24:33.275Z,1.30
2022-08-07T18:30:31.185Z,1.05
2022-08-07T18:36:14.905Z,1.00
2022-08-07T18:41:52.983Z,1.08
2022-08-07T18:47:20.843Z,1.10
2022-08-07T18:52:54.418Z,1.13
2022-08-07T19:04:57.455Z,0.90
2022-08-07T19:16:04.981Z,1.35
2022-08-07T19:21:55.985Z,1.38
2022-08-07T19:29:02.950Z,1.30
2022-08-07T19:32:44.073Z,1.23
2022-08-07T19:38:14.914Z,1.80
2022-08-07T19:44:21.590Z,1.50
2022-08-07T20:02:24.597Z,1.33
2022-08-07T20:13:55.001Z,1.23
2022-08-07T20:20:04.639Z,1.42
2022-08-07T20:55:00.795Z,1.50
2022-08-07T21:00:09.703Z,1.50
2022-08-07T21:22:59.208Z,1.40
2022-08-07T21:28:49.911Z,1.27
2022-08-07T22:09:07.623Z,1.75
2022-08-07T22:16:39.515Z,2.03
2022-08-07T22:21:11.486Z,1.33
2022-08-07T22:26:20.189Z,1.40
2022-08-07T22:32:24.832Z,1.55
2022-08-07T22:49:34.023Z,1.75
2022-08-07T22:55:22.593Z,1.42
2022-08-07T23:01:19.865Z,2.08
2022-08-07T23:06:51.644Z,2.28
2022-08-07T23:12:38.050Z,1.50
2022-08-07T23:18:03.526Z,2.20
2022-08-07T23:24:06.120Z,1.50
2022-08-07T23:29:44.054Z,2.05
2022-08-07T23:35:26.903Z,1.83
2022-08-07T23:41:10.363Z,2.10
2022-08-07T23:46:45.172Z,2.28
2022-08-07T23:53:08.846Z,2.00
2022-08-07T23:57:41.360Z,2.03
